sensor_id;sensor_type;location;lat;lon;timestamp;P1;durP1;ratioP1;P2;durP2;ratioP2
14394;SDS011;7282;49.204;10.652;2022-11-20T00:02:04;44.93;;;24.00;;
14394;SDS011;7282;49.204;10.652;2022-11-20T00:04:30;42.33;;;23.43;;
14394;SDS011;7282;49.204;10.652;2022-11-20T00:06:57;43.30;;;23.87;;
14394;SDS011;7282;49.204;10.652;2022-11-20T00:09:24;43.93;;;25.97;;
14394;SDS011;7282;49.204;10.652;2022-11-20T00:11:50;47.63;;;24.03;;
14394;SDS011;7282;49.204;10.652;2022-11-20T00:14:17;46.13;;;24.87;;
14394;SDS011;7282;49.204;10.652;2022-11-20T00:16:44;48.17;;;25.77;;
14394;SDS011;7282;49.204;10.652;2022-11-20T00:19:10;52.40;;;27.83;;
14394;SDS011;7282;49.204;10.652;2022-11-20T00:21:37;49.53;;;27.07;;
14394;SDS011;7282;49.204;10.652;2022-11-20T00:24:04;42.43;;;24.70;;
14394;SDS011;7282;49.204;10.652;2022-11-20T00:26:31;48.40;;;25.57;;
14394;SDS011;7282;49.204;10.652;2022-11-20T00:28:59;53.43;;;28.23;;
14394;SDS011;7282;49.204;10.652;2022-11-20T00:31:26;49.47;;;26.53;;
14394;SDS011;7282;49.204;10.652;2022-11-20T00:33:53;48.13;;;26.33;;
14394;SDS011;7282;49.204;10.652;2022-11-20T00:36:24;46.50;;;25.80;;
14394;SDS011;7282;49.204;10.652;2022-11-20T00:38:51;44.87;;;24.90;;
14394;SDS011;7282;49.204;10.652;2022-11-20T00:41:19;46.83;;;26.50;;
14394;SDS011;7282;49.204;10.652;2022-11-20T00:43:45;47.77;;;25.40;;
14394;SDS011;7282;49.204;10.652;2022-11-20T00:46:13;45.80;;;25.47;;
14394;SDS011;7282;49.204;10.652;2022-11-20T00:48:40;50.00;;;26.97;;
14394;SDS011;7282;49.204;10.652;2022-11-20T00:51:07;49.47;;;25.70;;
14394;SDS011;7282;49.204;10.652;2022-11-20T00:53:34;49.13;;;26.57;;
14394;SDS011;7282;49.204;10.652;2022-11-20T00:56:09;50.77;;;25.77;;
14394;SDS011;7282;49.204;10.652;2022-11-20T00:58:36;45.67;;;24.20;;
14394;SDS011;7282;49.204;10.652;2022-11-20T01:01:06;47.67;;;25.00;;
14394;SDS011;7282;49.204;10.652;2022-11-20T01:03:33;49.03;;;25.30;;
14394;SDS011;7282;49.204;10.652;2022-11-20T01:06:06;45.97;;;25.80;;
14394;SDS011;7282;49.204;10.652;2022-11-20T01:08:29;49.37;;;27.47;;
14394;SDS011;7282;49.204;10.652;2022-11-20T01:11:04;50.50;;;26.00;;
14394;SDS011;7282;49.204;10.652;2022-11-20T01:13:31;47.93;;;25.30;;
14394;SDS011;7282;49.204;10.652;2022-11-20T01:16:05;49.03;;;26.30;;
14394;SDS011;7282;49.204;10.652;2022-11-20T01:18:32;46.50;;;25.17;;
14394;SDS011;7282;49.204;10.652;2022-11-20T01:21:03;45.60;;;25.27;;
14394;SDS011;7282;49.204;10.652;2022-11-20T01:23:30;48.10;;;25.70;;
14394;SDS011;7282;49.204;10.652;2022-11-20T01:25:58;47.57;;;24.27;;
14394;SDS011;7282;49.204;10.652;2022-11-20T01:28:25;46.63;;;23.73;;
14394;SDS011;7282;49.204;10.652;2022-11-20T01:30:52;47.03;;;23.80;;
14394;SDS011;7282;49.204;10.652;2022-11-20T01:33:19;43.57;;;22.77;;
14394;SDS011;7282;49.204;10.652;2022-11-20T01:35:45;43.90;;;22.80;;
14394;SDS011;7282;49.204;10.652;2022-11-20T01:38:12;47.07;;;24.07;;
14394;SDS011;7282;49.204;10.652;2022-11-20T01:40:39;42.70;;;23.03;;
14394;SDS011;7282;49.204;10.652;2022-11-20T01:43:24;42.47;;;22.67;;
14394;SDS011;7282;49.204;10.652;2022-11-20T01:48:42;45.10;;;22.83;;
14394;SDS011;7282;49.204;10.652;2022-11-20T01:51:12;37.53;;;22.50;;
14394;SDS011;7282;49.204;10.652;2022-11-20T01:53:37;45.20;;;25.13;;
14394;SDS011;7282;49.204;10.652;2022-11-20T01:56:05;41.37;;;23.40;;
14394;SDS011;7282;49.204;10.652;2022-11-20T01:58:33;45.10;;;23.67;;
14394;SDS011;7282;49.204;10.652;2022-11-20T02:01:01;39.20;;;22.10;;
14394;SDS011;7282;49.204;10.652;2022-11-20T02:03:28;43.30;;;22.83;;
14394;SDS011;7282;49.204;10.652;2022-11-20T02:05:57;43.67;;;23.73;;
14394;SDS011;7282;49.204;10.652;2022-11-20T02:08:24;38.83;;;21.90;;
14394;SDS011;7282;49.204;10.652;2022-11-20T02:10:51;39.60;;;22.90;;
14394;SDS011;7282;49.204;10.652;2022-11-20T02:13:17;44.23;;;23.87;;
14394;SDS011;7282;49.204;10.652;2022-11-20T02:16:02;42.03;;;24.10;;
14394;SDS011;7282;49.204;10.652;2022-11-20T02:18:29;40.93;;;22.67;;
14394;SDS011;7282;49.204;10.652;2022-11-20T02:21:02;46.27;;;24.80;;
14394;SDS011;7282;49.204;10.652;2022-11-20T02:26:06;39.63;;;22.33;;
14394;SDS011;7282;49.204;10.652;2022-11-20T02:28:33;41.20;;;23.47;;
14394;SDS011;7282;49.204;10.652;2022-11-20T02:31:00;42.50;;;24.27;;
14394;SDS011;7282;49.204;10.652;2022-11-20T02:33:27;37.77;;;22.47;;
14394;SDS011;7282;49.204;10.652;2022-11-20T02:35:54;41.87;;;23.00;;
14394;SDS011;7282;49.204;10.652;2022-11-20T02:38:20;40.50;;;23.90;;
14394;SDS011;7282;49.204;10.652;2022-11-20T02:40:47;41.77;;;23.47;;
14394;SDS011;7282;49.204;10.652;2022-11-20T02:43:15;40.47;;;23.20;;
14394;SDS011;7282;49.204;10.652;2022-11-20T02:45:42;41.67;;;23.20;;
14394;SDS011;7282;49.204;10.652;2022-11-20T02:48:09;39.43;;;23.87;;
14394;SDS011;7282;49.204;10.652;2022-11-20T02:50:38;44.30;;;23.83;;
14394;SDS011;7282;49.204;10.652;2022-11-20T02:53:06;41.17;;;22.90;;
14394;SDS011;7282;49.204;10.652;2022-11-20T02:55:32;40.17;;;21.43;;
14394;SDS011;7282;49.204;10.652;2022-11-20T02:57:59;46.33;;;22.53;;
14394;SDS011;7282;49.204;10.652;2022-11-20T03:00:26;41.93;;;22.57;;
14394;SDS011;7282;49.204;10.652;2022-11-20T03:02:52;41.87;;;23.17;;
14394;SDS011;7282;49.204;10.652;2022-11-20T03:05:19;38.30;;;22.43;;
14394;SDS011;7282;49.204;10.652;2022-11-20T03:07:46;41.40;;;21.97;;
14394;SDS011;7282;49.204;10.652;2022-11-20T03:10:12;48.20;;;25.27;;
14394;SDS011;7282;49.204;10.652;2022-11-20T03:12:39;41.23;;;22.37;;
14394;SDS011;7282;49.204;10.652;2022-11-20T03:15:06;42.40;;;22.60;;
14394;SDS011;7282;49.204;10.652;2022-11-20T03:17:33;42.50;;;23.17;;
14394;SDS011;7282;49.204;10.652;2022-11-20T03:20:00;39.33;;;22.27;;
14394;SDS011;7282;49.204;10.652;2022-11-20T03:22:28;37.67;;;20.67;;
14394;SDS011;7282;49.204;10.652;2022-11-20T03:24:55;42.50;;;22.00;;
14394;SDS011;7282;49.204;10.652;2022-11-20T03:27:22;38.83;;;22.00;;
14394;SDS011;7282;49.204;10.652;2022-11-20T03:29:49;40.30;;;21.53;;
14394;SDS011;7282;49.204;10.652;2022-11-20T03:32:15;38.00;;;21.00;;
14394;SDS011;7282;49.204;10.652;2022-11-20T03:34:42;37.47;;;21.60;;
14394;SDS011;7282;49.204;10.652;2022-11-20T03:37:09;36.67;;;20.13;;
14394;SDS011;7282;49.204;10.652;2022-11-20T03:39:36;35.47;;;19.83;;
14394;SDS011;7282;49.204;10.652;2022-11-20T03:42:02;37.70;;;20.77;;
14394;SDS011;7282;49.204;10.652;2022-11-20T03:44:31;35.57;;;18.93;;
14394;SDS011;7282;49.204;10.652;2022-11-20T03:46:57;33.30;;;18.63;;
14394;SDS011;7282;49.204;10.652;2022-11-20T03:49:24;34.50;;;19.97;;
14394;SDS011;7282;49.204;10.652;2022-11-20T03:51:51;34.33;;;18.73;;
14394;SDS011;7282;49.204;10.652;2022-11-20T03:54:18;31.63;;;17.87;;
14394;SDS011;7282;49.204;10.652;2022-11-20T03:56:44;34.67;;;19.33;;
14394;SDS011;7282;49.204;10.652;2022-11-20T03:59:11;34.63;;;20.00;;
14394;SDS011;7282;49.204;10.652;2022-11-20T04:01:38;38.70;;;19.47;;
14394;SDS011;7282;49.204;10.652;2022-11-20T04:04:05;37.53;;;19.37;;
14394;SDS011;7282;49.204;10.652;2022-11-20T04:06:35;31.53;;;18.23;;
14394;SDS011;7282;49.204;10.652;2022-11-20T04:09:02;33.30;;;18.43;;
14394;SDS011;7282;49.204;10.652;2022-11-20T04:11:33;32.13;;;18.33;;
14394;SDS011;7282;49.204;10.652;2022-11-20T04:14:01;31.90;;;17.43;;
14394;SDS011;7282;49.204;10.652;2022-11-20T04:16:35;35.90;;;19.10;;
14394;SDS011;7282;49.204;10.652;2022-11-20T04:19:01;27.37;;;16.53;;
14394;SDS011;7282;49.204;10.652;2022-11-20T04:21:28;31.77;;;18.00;;
14394;SDS011;7282;49.204;10.652;2022-11-20T04:23:55;29.57;;;17.73;;
14394;SDS011;7282;49.204;10.652;2022-11-20T04:26:22;26.77;;;15.67;;
14394;SDS011;7282;49.204;10.652;2022-11-20T04:28:49;24.33;;;14.93;;
14394;SDS011;7282;49.204;10.652;2022-11-20T04:31:20;30.00;;;16.47;;
14394;SDS011;7282;49.204;10.652;2022-11-20T04:33:47;29.97;;;15.93;;
14394;SDS011;7282;49.204;10.652;2022-11-20T04:36:23;26.80;;;16.40;;
14394;SDS011;7282;49.204;10.652;2022-11-20T04:38:51;24.30;;;15.23;;
14394;SDS011;7282;49.204;10.652;2022-11-20T04:41:19;27.87;;;16.03;;
14394;SDS011;7282;49.204;10.652;2022-11-20T04:43:49;29.97;;;17.80;;
14394;SDS011;7282;49.204;10.652;2022-11-20T04:46:15;31.30;;;17.27;;
14394;SDS011;7282;49.204;10.652;2022-11-20T04:48:42;32.83;;;18.30;;
14394;SDS011;7282;49.204;10.652;2022-11-20T04:51:08;33.07;;;17.67;;
14394;SDS011;7282;49.204;10.652;2022-11-20T04:53:35;37.63;;;19.57;;
14394;SDS011;7282;49.204;10.652;2022-11-20T04:56:03;39.73;;;20.00;;
14394;SDS011;7282;49.204;10.652;2022-11-20T04:58:29;36.67;;;19.00;;
14394;SDS011;7282;49.204;10.652;2022-11-20T05:01:02;41.40;;;21.10;;
14394;SDS011;7282;49.204;10.652;2022-11-20T05:03:29;36.60;;;20.10;;
14394;SDS011;7282;49.204;10.652;2022-11-20T05:05:56;36.20;;;19.37;;
14394;SDS011;7282;49.204;10.652;2022-11-20T05:08:25;35.10;;;18.80;;
14394;SDS011;7282;49.204;10.652;2022-11-20T05:10:51;38.80;;;20.20;;
14394;SDS011;7282;49.204;10.652;2022-11-20T05:13:18;36.70;;;18.90;;
14394;SDS011;7282;49.204;10.652;2022-11-20T05:15:45;37.73;;;20.27;;
14394;SDS011;7282;49.204;10.652;2022-11-20T05:18:11;31.37;;;18.17;;
14394;SDS011;7282;49.204;10.652;2022-11-20T05:20:38;29.43;;;17.20;;
14394;SDS011;7282;49.204;10.652;2022-11-20T05:23:05;32.53;;;17.80;;
14394;SDS011;7282;49.204;10.652;2022-11-20T05:25:31;29.80;;;18.13;;
14394;SDS011;7282;49.204;10.652;2022-11-20T05:27:58;34.57;;;19.57;;
14394;SDS011;7282;49.204;10.652;2022-11-20T05:30:25;36.10;;;19.13;;
14394;SDS011;7282;49.204;10.652;2022-11-20T05:32:52;38.47;;;20.07;;
14394;SDS011;7282;49.204;10.652;2022-11-20T05:35:18;35.03;;;17.83;;
14394;SDS011;7282;49.204;10.652;2022-11-20T05:37:45;37.97;;;19.27;;
14394;SDS011;7282;49.204;10.652;2022-11-20T05:40:12;31.87;;;18.60;;
14394;SDS011;7282;49.204;10.652;2022-11-20T05:42:38;38.27;;;19.83;;
14394;SDS011;7282;49.204;10.652;2022-11-20T05:45:05;38.60;;;20.13;;
14394;SDS011;7282;49.204;10.652;2022-11-20T05:47:32;48.23;;;22.50;;
14394;SDS011;7282;49.204;10.652;2022-11-20T05:49:59;36.80;;;20.40;;
14394;SDS011;7282;49.204;10.652;2022-11-20T05:52:29;32.97;;;18.73;;
14394;SDS011;7282;49.204;10.652;2022-11-20T05:54:56;37.40;;;20.37;;
14394;SDS011;7282;49.204;10.652;2022-11-20T05:57:23;44.73;;;20.70;;
14394;SDS011;7282;49.204;10.652;2022-11-20T05:59:49;46.50;;;21.50;;
14394;SDS011;7282;49.204;10.652;2022-11-20T06:02:16;31.87;;;18.00;;
14394;SDS011;7282;49.204;10.652;2022-11-20T06:04:43;34.43;;;18.87;;
14394;SDS011;7282;49.204;10.652;2022-11-20T06:07:10;37.60;;;19.90;;
14394;SDS011;7282;49.204;10.652;2022-11-20T06:09:36;38.03;;;20.60;;
14394;SDS011;7282;49.204;10.652;2022-11-20T06:12:03;40.90;;;21.40;;
14394;SDS011;7282;49.204;10.652;2022-11-20T06:14:30;46.63;;;23.23;;
14394;SDS011;7282;49.204;10.652;2022-11-20T06:16:56;45.53;;;23.87;;
14394;SDS011;7282;49.204;10.652;2022-11-20T06:19:23;39.27;;;21.37;;
14394;SDS011;7282;49.204;10.652;2022-11-20T06:21:50;39.93;;;22.20;;
14394;SDS011;7282;49.204;10.652;2022-11-20T06:24:17;41.50;;;22.13;;
14394;SDS011;7282;49.204;10.652;2022-11-20T06:26:44;42.43;;;22.40;;
14394;SDS011;7282;49.204;10.652;2022-11-20T06:29:11;46.37;;;24.80;;
14394;SDS011;7282;49.204;10.652;2022-11-20T06:31:37;46.60;;;24.97;;
14394;SDS011;7282;49.204;10.652;2022-11-20T06:34:05;44.43;;;23.67;;
14394;SDS011;7282;49.204;10.652;2022-11-20T06:36:32;37.10;;;22.03;;
14394;SDS011;7282;49.204;10.652;2022-11-20T06:38:59;35.67;;;21.70;;
14394;SDS011;7282;49.204;10.652;2022-11-20T06:41:26;31.57;;;20.27;;
14394;SDS011;7282;49.204;10.652;2022-11-20T06:43:53;35.50;;;21.00;;
14394;SDS011;7282;49.204;10.652;2022-11-20T06:46:20;31.83;;;20.40;;
14394;SDS011;7282;49.204;10.652;2022-11-20T06:48:47;30.53;;;20.03;;
14394;SDS011;7282;49.204;10.652;2022-11-20T06:51:14;31.70;;;20.80;;
14394;SDS011;7282;49.204;10.652;2022-11-20T06:53:41;29.67;;;19.30;;
14394;SDS011;7282;49.204;10.652;2022-11-20T06:56:08;27.87;;;17.83;;
14394;SDS011;7282;49.204;10.652;2022-11-20T06:58:35;30.47;;;18.07;;
14394;SDS011;7282;49.204;10.652;2022-11-20T07:01:04;28.33;;;17.80;;
14394;SDS011;7282;49.204;10.652;2022-11-20T07:03:31;33.60;;;18.90;;
14394;SDS011;7282;49.204;10.652;2022-11-20T07:05:58;26.97;;;18.57;;
14394;SDS011;7282;49.204;10.652;2022-11-20T07:08:26;28.43;;;18.23;;
14394;SDS011;7282;49.204;10.652;2022-11-20T07:10:52;28.47;;;18.03;;
14394;SDS011;7282;49.204;10.652;2022-11-20T07:13:19;28.10;;;17.30;;
14394;SDS011;7282;49.204;10.652;2022-11-20T07:15:46;27.43;;;16.87;;
14394;SDS011;7282;49.204;10.652;2022-11-20T07:18:17;21.87;;;15.27;;
14394;SDS011;7282;49.204;10.652;2022-11-20T07:20:41;23.03;;;14.90;;
14394;SDS011;7282;49.204;10.652;2022-11-20T07:23:08;23.73;;;15.30;;
14394;SDS011;7282;49.204;10.652;2022-11-20T07:25:34;18.97;;;13.87;;
14394;SDS011;7282;49.204;10.652;2022-11-20T07:28:01;18.13;;;12.90;;
14394;SDS011;7282;49.204;10.652;2022-11-20T07:30:28;20.23;;;12.97;;
14394;SDS011;7282;49.204;10.652;2022-11-20T07:32:58;17.80;;;12.57;;
14394;SDS011;7282;49.204;10.652;2022-11-20T07:35:25;17.37;;;12.50;;
14394;SDS011;7282;49.204;10.652;2022-11-20T07:37:51;17.20;;;11.73;;
14394;SDS011;7282;49.204;10.652;2022-11-20T07:40:18;14.40;;;10.93;;
14394;SDS011;7282;49.204;10.652;2022-11-20T07:42:52;15.93;;;11.50;;
14394;SDS011;7282;49.204;10.652;2022-11-20T07:45:19;15.67;;;11.03;;
14394;SDS011;7282;49.204;10.652;2022-11-20T07:47:46;14.17;;;10.67;;
14394;SDS011;7282;49.204;10.652;2022-11-20T07:50:13;13.63;;;10.83;;
14394;SDS011;7282;49.204;10.652;2022-11-20T07:52:40;13.57;;;10.13;;
14394;SDS011;7282;49.204;10.652;2022-11-20T07:55:09;13.47;;;10.57;;
14394;SDS011;7282;49.204;10.652;2022-11-20T07:57:36;11.30;;;9.17;;
14394;SDS011;7282;49.204;10.652;2022-11-20T08:00:03;12.57;;;9.33;;
14394;SDS011;7282;49.204;10.652;2022-11-20T08:02:33;11.73;;;9.57;;
14394;SDS011;7282;49.204;10.652;2022-11-20T08:04:59;9.33;;;7.40;;
14394;SDS011;7282;49.204;10.652;2022-11-20T08:07:26;9.67;;;7.63;;
14394;SDS011;7282;49.204;10.652;2022-11-20T08:09:53;8.37;;;6.93;;
14394;SDS011;7282;49.204;10.652;2022-11-20T08:12:20;7.70;;;6.13;;
14394;SDS011;7282;49.204;10.652;2022-11-20T08:15:05;9.53;;;6.60;;
14394;SDS011;7282;49.204;10.652;2022-11-20T08:17:32;8.97;;;6.63;;
14394;SDS011;7282;49.204;10.652;2022-11-20T08:19:58;9.93;;;7.33;;
14394;SDS011;7282;49.204;10.652;2022-11-20T08:22:25;10.90;;;7.50;;
14394;SDS011;7282;49.204;10.652;2022-11-20T08:24:52;9.23;;;7.77;;
14394;SDS011;7282;49.204;10.652;2022-11-20T08:27:21;8.80;;;7.00;;
14394;SDS011;7282;49.204;10.652;2022-11-20T08:29:48;11.03;;;9.83;;
14394;SDS011;7282;49.204;10.652;2022-11-20T08:32:14;12.10;;;9.63;;
14394;SDS011;7282;49.204;10.652;2022-11-20T08:34:41;10.70;;;8.03;;
14394;SDS011;7282;49.204;10.652;2022-11-20T08:37:08;19.40;;;12.40;;
14394;SDS011;7282;49.204;10.652;2022-11-20T08:39:35;24.53;;;14.33;;
14394;SDS011;7282;49.204;10.652;2022-11-20T08:42:01;21.83;;;13.73;;
14394;SDS011;7282;49.204;10.652;2022-11-20T08:44:28;29.07;;;15.27;;
14394;SDS011;7282;49.204;10.652;2022-11-20T08:46:55;20.10;;;11.57;;
14394;SDS011;7282;49.204;10.652;2022-11-20T08:49:21;17.17;;;11.43;;
14394;SDS011;7282;49.204;10.652;2022-11-20T08:51:51;20.03;;;11.93;;
14394;SDS011;7282;49.204;10.652;2022-11-20T08:54:19;16.97;;;10.53;;
14394;SDS011;7282;49.204;10.652;2022-11-20T08:56:48;9.27;;;7.23;;
14394;SDS011;7282;49.204;10.652;2022-11-20T08:59:14;10.23;;;9.07;;
14394;SDS011;7282;49.204;10.652;2022-11-20T09:01:41;13.30;;;8.93;;
14394;SDS011;7282;49.204;10.652;2022-11-20T09:04:08;15.47;;;11.53;;
14394;SDS011;7282;49.204;10.652;2022-11-20T09:06:34;9.47;;;8.47;;
14394;SDS011;7282;49.204;10.652;2022-11-20T09:09:01;9.63;;;8.07;;
14394;SDS011;7282;49.204;10.652;2022-11-20T09:11:28;13.93;;;11.13;;
14394;SDS011;7282;49.204;10.652;2022-11-20T09:13:55;15.90;;;11.23;;
14394;SDS011;7282;49.204;10.652;2022-11-20T09:16:21;10.50;;;8.90;;
14394;SDS011;7282;49.204;10.652;2022-11-20T09:18:49;10.67;;;8.60;;
14394;SDS011;7282;49.204;10.652;2022-11-20T09:21:17;9.77;;;8.10;;
14394;SDS011;7282;49.204;10.652;2022-11-20T09:23:43;10.20;;;8.60;;
14394;SDS011;7282;49.204;10.652;2022-11-20T09:26:12;10.57;;;9.40;;
14394;SDS011;7282;49.204;10.652;2022-11-20T09:28:39;9.73;;;8.23;;
14394;SDS011;7282;49.204;10.652;2022-11-20T09:31:13;10.90;;;8.07;;
14394;SDS011;7282;49.204;10.652;2022-11-20T09:33:34;9.07;;;7.73;;
14394;SDS011;7282;49.204;10.652;2022-11-20T09:36:01;7.10;;;6.40;;
14394;SDS011;7282;49.204;10.652;2022-11-20T09:38:28;7.70;;;6.53;;
14394;SDS011;7282;49.204;10.652;2022-11-20T09:41:00;7.03;;;5.70;;
14394;SDS011;7282;49.204;10.652;2022-11-20T09:48:36;7.37;;;6.30;;
14394;SDS011;7282;49.204;10.652;2022-11-20T09:51:05;8.03;;;6.50;;
14394;SDS011;7282;49.204;10.652;2022-11-20T09:53:32;6.67;;;5.97;;
14394;SDS011;7282;49.204;10.652;2022-11-20T09:55:58;7.13;;;6.20;;
14394;SDS011;7282;49.204;10.652;2022-11-20T10:01:12;9.50;;;7.30;;
14394;SDS011;7282;49.204;10.652;2022-11-20T10:04:00;7.90;;;6.80;;
14394;SDS011;7282;49.204;10.652;2022-11-20T10:06:05;8.60;;;7.57;;
14394;SDS011;7282;49.204;10.652;2022-11-20T10:08:45;9.70;;;8.20;;
14394;SDS011;7282;49.204;10.652;2022-11-20T10:11:12;11.67;;;8.63;;
14394;SDS011;7282;49.204;10.652;2022-11-20T10:13:47;9.70;;;7.50;;
14394;SDS011;7282;49.204;10.652;2022-11-20T10:16:18;11.67;;;7.97;;
14394;SDS011;7282;49.204;10.652;2022-11-20T10:21:35;9.70;;;7.07;;
14394;SDS011;7282;49.204;10.652;2022-11-20T10:24:03;7.47;;;6.67;;
14394;SDS011;7282;49.204;10.652;2022-11-20T10:29:07;6.27;;;5.60;;
14394;SDS011;7282;49.204;10.652;2022-11-20T10:31:39;5.83;;;5.13;;
14394;SDS011;7282;49.204;10.652;2022-11-20T10:34:06;6.53;;;5.83;;
14394;SDS011;7282;49.204;10.652;2022-11-20T10:36:37;6.10;;;5.50;;
14394;SDS011;7282;49.204;10.652;2022-11-20T10:41:45;6.23;;;5.57;;
14394;SDS011;7282;49.204;10.652;2022-11-20T10:44:14;6.67;;;5.73;;
14394;SDS011;7282;49.204;10.652;2022-11-20T10:46:44;9.97;;;7.40;;
14394;SDS011;7282;49.204;10.652;2022-11-20T10:49:14;5.27;;;4.77;;
14394;SDS011;7282;49.204;10.652;2022-11-20T10:51:43;5.83;;;5.23;;
14394;SDS011;7282;49.204;10.652;2022-11-20T10:56:41;7.97;;;6.10;;
14394;SDS011;7282;49.204;10.652;2022-11-20T11:01:42;6.50;;;5.13;;
14394;SDS011;7282;49.204;10.652;2022-11-20T11:05:11;6.07;;;5.57;;
14394;SDS011;7282;49.204;10.652;2022-11-20T11:06:47;6.87;;;5.60;;
14394;SDS011;7282;49.204;10.652;2022-11-20T11:09:16;5.73;;;5.20;;
14394;SDS011;7282;49.204;10.652;2022-11-20T11:11:43;6.80;;;5.77;;
14394;SDS011;7282;49.204;10.652;2022-11-20T11:14:11;6.77;;;6.07;;
14394;SDS011;7282;49.204;10.652;2022-11-20T11:16:52;7.77;;;5.80;;
14394;SDS011;7282;49.204;10.652;2022-11-20T11:19:19;7.53;;;5.53;;
14394;SDS011;7282;49.204;10.652;2022-11-20T11:21:50;6.83;;;6.03;;
14394;SDS011;7282;49.204;10.652;2022-11-20T11:24:24;5.87;;;4.90;;
14394;SDS011;7282;49.204;10.652;2022-11-20T11:26:59;5.57;;;4.90;;
14394;SDS011;7282;49.204;10.652;2022-11-20T11:29:27;5.77;;;5.17;;
14394;SDS011;7282;49.204;10.652;2022-11-20T11:32:11;5.23;;;4.73;;
14394;SDS011;7282;49.204;10.652;2022-11-20T11:34:37;5.90;;;5.30;;
14394;SDS011;7282;49.204;10.652;2022-11-20T11:37:03;6.57;;;5.90;;
14394;SDS011;7282;49.204;10.652;2022-11-20T11:39:31;6.27;;;5.67;;
14394;SDS011;7282;49.204;10.652;2022-11-20T11:41:59;6.87;;;6.07;;
14394;SDS011;7282;49.204;10.652;2022-11-20T11:44:28;6.50;;;5.90;;
14394;SDS011;7282;49.204;10.652;2022-11-20T11:47:30;6.43;;;5.63;;
14394;SDS011;7282;49.204;10.652;2022-11-20T11:50:28;6.90;;;6.20;;
14394;SDS011;7282;49.204;10.652;2022-11-20T11:52:29;6.40;;;5.80;;
14394;SDS011;7282;49.204;10.652;2022-11-20T11:55:01;7.53;;;6.33;;
14394;SDS011;7282;49.204;10.652;2022-11-20T11:57:37;7.30;;;6.37;;
14394;SDS011;7282;49.204;10.652;2022-11-20T12:02:31;7.53;;;6.80;;
14394;SDS011;7282;49.204;10.652;2022-11-20T12:04:59;7.10;;;6.37;;
14394;SDS011;7282;49.204;10.652;2022-11-20T12:09:58;5.97;;;5.37;;
14394;SDS011;7282;49.204;10.652;2022-11-20T12:12:27;4.17;;;3.77;;
14394;SDS011;7282;49.204;10.652;2022-11-20T12:14:53;4.30;;;3.90;;
14394;SDS011;7282;49.204;10.652;2022-11-20T12:17:21;4.87;;;4.37;;
14394;SDS011;7282;49.204;10.652;2022-11-20T12:19:47;5.40;;;4.87;;
14394;SDS011;7282;49.204;10.652;2022-11-20T12:22:21;5.67;;;5.13;;
14394;SDS011;7282;49.204;10.652;2022-11-20T12:24:56;6.43;;;5.30;;
14394;SDS011;7282;49.204;10.652;2022-11-20T12:30:08;7.40;;;6.70;;
14394;SDS011;7282;49.204;10.652;2022-11-20T12:32:42;7.60;;;6.73;;
14394;SDS011;7282;49.204;10.652;2022-11-20T12:40:44;12.07;;;10.07;;
14394;SDS011;7282;49.204;10.652;2022-11-20T12:43:21;11.67;;;10.47;;
14394;SDS011;7282;49.204;10.652;2022-11-20T12:48:41;12.20;;;10.70;;
14394;SDS011;7282;49.204;10.652;2022-11-20T12:51:17;14.67;;;12.50;;
14394;SDS011;7282;49.204;10.652;2022-11-20T12:54:00;14.10;;;12.43;;
14394;SDS011;7282;49.204;10.652;2022-11-20T12:56:43;14.13;;;12.03;;
14394;SDS011;7282;49.204;10.652;2022-11-20T12:59:20;13.10;;;10.90;;
14394;SDS011;7282;49.204;10.652;2022-11-20T13:01:56;12.27;;;10.97;;
14394;SDS011;7282;49.204;10.652;2022-11-20T13:07:01;11.13;;;9.60;;
14394;SDS011;7282;49.204;10.652;2022-11-20T13:09:28;10.40;;;9.30;;
14394;SDS011;7282;49.204;10.652;2022-11-20T13:12:03;10.70;;;9.50;;
14394;SDS011;7282;49.204;10.652;2022-11-20T13:14:43;10.80;;;9.43;;
14394;SDS011;7282;49.204;10.652;2022-11-20T13:17:23;9.63;;;8.63;;
14394;SDS011;7282;49.204;10.652;2022-11-20T13:19:55;9.63;;;8.63;;
14394;SDS011;7282;49.204;10.652;2022-11-20T13:22:25;9.17;;;8.27;;
14394;SDS011;7282;49.204;10.652;2022-11-20T13:24:51;9.80;;;8.60;;
14394;SDS011;7282;49.204;10.652;2022-11-20T13:27:19;9.83;;;8.90;;
14394;SDS011;7282;49.204;10.652;2022-11-20T13:30:12;10.40;;;9.30;;
14394;SDS011;7282;49.204;10.652;2022-11-20T13:32:27;10.27;;;9.03;;
14394;SDS011;7282;49.204;10.652;2022-11-20T13:34:57;10.07;;;9.07;;
14394;SDS011;7282;49.204;10.652;2022-11-20T13:37:29;10.90;;;9.80;;
14394;SDS011;7282;49.204;10.652;2022-11-20T13:39:52;10.73;;;9.63;;
14394;SDS011;7282;49.204;10.652;2022-11-20T13:42:27;11.53;;;10.43;;
14394;SDS011;7282;49.204;10.652;2022-11-20T13:44:54;10.90;;;9.80;;
14394;SDS011;7282;49.204;10.652;2022-11-20T13:47:22;9.33;;;8.37;;
14394;SDS011;7282;49.204;10.652;2022-11-20T13:49:49;9.43;;;8.50;;
14394;SDS011;7282;49.204;10.652;2022-11-20T13:57:52;10.03;;;8.67;;
14394;SDS011;7282;49.204;10.652;2022-11-20T14:00:18;10.77;;;8.97;;
14394;SDS011;7282;49.204;10.652;2022-11-20T14:02:53;10.07;;;8.93;;
14394;SDS011;7282;49.204;10.652;2022-11-20T14:05:22;9.80;;;8.53;;
14394;SDS011;7282;49.204;10.652;2022-11-20T14:07:50;8.47;;;7.37;;
14394;SDS011;7282;49.204;10.652;2022-11-20T14:10:24;9.60;;;8.70;;
14394;SDS011;7282;49.204;10.652;2022-11-20T14:12:52;8.87;;;7.67;;
14394;SDS011;7282;49.204;10.652;2022-11-20T14:17:53;9.73;;;7.40;;
14394;SDS011;7282;49.204;10.652;2022-11-20T14:20:20;8.30;;;7.40;;
14394;SDS011;7282;49.204;10.652;2022-11-20T14:22:50;9.47;;;7.47;;
14394;SDS011;7282;49.204;10.652;2022-11-20T14:27:49;7.57;;;6.83;;
14394;SDS011;7282;49.204;10.652;2022-11-20T14:30:20;9.87;;;7.30;;
14394;SDS011;7282;49.204;10.652;2022-11-20T14:32:47;7.67;;;6.93;;
14394;SDS011;7282;49.204;10.652;2022-11-20T14:35:17;6.60;;;5.57;;
14394;SDS011;7282;49.204;10.652;2022-11-20T14:37:45;8.70;;;5.80;;
14394;SDS011;7282;49.204;10.652;2022-11-20T14:40:26;7.60;;;5.33;;
14394;SDS011;7282;49.204;10.652;2022-11-20T14:42:49;7.03;;;6.17;;
14394;SDS011;7282;49.204;10.652;2022-11-20T14:45:16;8.33;;;6.63;;
14394;SDS011;7282;49.204;10.652;2022-11-20T14:47:43;7.83;;;6.70;;
14394;SDS011;7282;49.204;10.652;2022-11-20T14:50:26;6.17;;;5.60;;
14394;SDS011;7282;49.204;10.652;2022-11-20T14:52:54;6.67;;;5.50;;
14394;SDS011;7282;49.204;10.652;2022-11-20T14:55:35;7.77;;;5.80;;
14394;SDS011;7282;49.204;10.652;2022-11-20T14:58:06;8.67;;;6.83;;
14394;SDS011;7282;49.204;10.652;2022-11-20T15:00:34;8.67;;;6.50;;
14394;SDS011;7282;49.204;10.652;2022-11-20T15:03:01;9.73;;;6.43;;
14394;SDS011;7282;49.204;10.652;2022-11-20T15:05:44;8.67;;;6.30;;
14394;SDS011;7282;49.204;10.652;2022-11-20T15:08:12;6.47;;;5.87;;
14394;SDS011;7282;49.204;10.652;2022-11-20T15:10:38;6.80;;;5.90;;
14394;SDS011;7282;49.204;10.652;2022-11-20T15:13:11;6.13;;;5.47;;
14394;SDS011;7282;49.204;10.652;2022-11-20T15:15:42;7.83;;;5.37;;
14394;SDS011;7282;49.204;10.652;2022-11-20T15:18:19;5.37;;;4.70;;
14394;SDS011;7282;49.204;10.652;2022-11-20T15:20:47;11.20;;;5.17;;
14394;SDS011;7282;49.204;10.652;2022-11-20T15:23:15;5.73;;;4.87;;
14394;SDS011;7282;49.204;10.652;2022-11-20T15:25:43;6.13;;;4.60;;
14394;SDS011;7282;49.204;10.652;2022-11-20T15:28:21;5.83;;;4.70;;
14394;SDS011;7282;49.204;10.652;2022-11-20T15:30:39;6.67;;;4.47;;
14394;SDS011;7282;49.204;10.652;2022-11-20T15:33:07;5.90;;;4.60;;
14394;SDS011;7282;49.204;10.652;2022-11-20T15:35:34;6.23;;;5.40;;